Airfield :
LOGIN :

Register | Disclaimer

   EN    FR    IT 

 










Legend :    VFR   Marginal VFR   IFR   Intensive IFR   Very Intensive IFR
Visi :
Ceiling :
>= 8 km
>= 3000ft
5 to 8 km
1000 to 3000 ft
1500m to 5 km
500 to 1000 ft
800 to 1500m
200 to 500 ft
< 800m
< 200 ft
Symbols :   Thunderstorms  Fog  Heavy snow  Heavy precipitations  Wind > 20 kt
SIGMETs :     Misc.  Thunderstorms  Icing  Turbulence  Mountain Waves  Volcanic Ashes







- Airport Elevation : 468 ft
- IATA code : GRO


LEGE - Girona Costa Brava

CURRENT METAR :
  • 211700Z 08007KT 050V110 9999 FEW045 SCT055 23/17 Q1013

EXPIRED METARs :
  • 211630Z 08009KT 050V110 9999 FEW045 SCT055 23/17 Q1013
  • 211600Z 07010KT 040V110 9999 FEW045 SCT055 24/18 Q1013
  • 211530Z 07010KT 030V120 9999 FEW038 SCT075 25/18 Q1013
  • 211500Z 08010KT 060V130 9999 VCTS FEW058 FEW060CB SCT075 25/18 Q1013
  • 211443Z 09010KT 050V130 9999 FEW058 FEW060CB SCT075 25/17 Q1012
  • 211430Z 12008KT 070V170 9999 SCT050 SCT065 26/17 Q1012

TAF TAF LEGE
Valid from the 21 at 12:00 until the 22 at 12:00 UTC


211100Z 2112/2212 VRB04KT 9999 FEW020 TX30/2113Z TN18/2205Z
TEMPO 2112/2115 20010KT
PROB40
TEMPO 2112/2119 05018G30KT 3000 TSRA FEW020CB BKN030
TEMPO 2122/2206 3000 BR
No reported NOTAMs for that airfield.



MET'MAP, your aeronautical weather chart ! - Copyright ORBIFLY December 2007 - Disclaimer

ORBIFLY MET'MAP TEAM :

Programming & Development : Alexandra Zaïnal
Concept & Development : Baudouin d'Aumeries
Co-Development & Prog : Marc-Olivier Méhu
Technical & hardware support : Manuel Goepfert

Contact : metmap@orbifly.com




SOURCES & CREDITS :

   NOAA